Time;durP1;ratioP1;P1;durP2;ratioP2;P2;SDS_P1;SDS_P2;PMS_P1;PMS_P2;Temp;Humidity;BMP_temperature;BMP_pressure;BME280_temperature;BME280_humidity;BME280_pressure;Samples;Min_cycle;Max_cycle;Signal;HPM_P1;HPM_P2
2023/02/15 00:01:57;;;;;;;15.00;9.57;;;;;;;1.36;98.95;102239.41;4996607;28;20595;-79
2023/02/15 00:04:45;;;;;;;14.87;10.20;;;;;;;1.37;99.23;102239.41;4991421;28;20320;-79
2023/02/15 00:07:14;;;;;;;11.67;8.93;;;;;;;1.36;99.32;102234.16;4994698;28;20568;-81
2023/02/15 00:09:41;;;;;;;14.10;9.57;;;;;;;1.37;99.00;102228.91;4997250;28;20219;-79
2023/02/15 00:12:07;;;;;;;12.63;9.63;;;;;;;1.37;99.65;102223.66;4994083;28;20215;-79
2023/02/15 00:14:34;;;;;;;12.83;9.53;;;;;;;1.38;99.29;102232.41;4993696;28;20234;-80
2023/02/15 00:17:00;;;;;;;13.73;9.60;;;;;;;1.35;99.54;102228.03;4996708;28;20228;-81
2023/02/15 00:19:27;;;;;;;13.03;9.40;;;;;;;1.34;99.82;102225.41;4989822;28;20207;-81
2023/02/15 00:21:54;;;;;;;14.47;9.33;;;;;;;1.30;99.51;102226.25;4996615;28;20207;-80
2023/02/15 00:24:21;;;;;;;13.47;10.00;;;;;;;1.27;99.05;102228.88;4994433;28;20621;-81
2023/02/15 00:26:49;;;;;;;12.90;9.40;;;;;;;1.24;99.69;102224.53;4990881;28;20200;-78
2023/02/15 00:29:16;;;;;;;14.33;9.63;;;;;;;1.22;99.97;102226.28;4994743;28;20212;-80
2023/02/15 00:31:43;;;;;;;14.53;10.07;;;;;;;1.24;100.00;102221.03;4990658;28;20672;-80
2023/02/15 00:34:13;;;;;;;13.63;8.83;;;;;;;1.26;100.00;102216.63;4988989;28;20699;-80
2023/02/15 00:36:39;;;;;;;13.37;9.10;;;;;;;1.28;100.00;102210.50;4993353;28;20227;-80
2023/02/15 00:39:06;;;;;;;15.20;9.83;;;;;;;1.30;100.00;102205.25;4992603;28;20208;-78
2023/02/15 00:41:35;;;;;;;14.43;10.23;;;;;;;1.33;100.00;102207.88;4986048;28;20210;-79
2023/02/15 00:44:01;;;;;;;13.67;9.70;;;;;;;1.34;100.00;102210.53;4995836;28;20823;-80
2023/02/15 00:46:27;;;;;;;14.50;9.93;;;;;;;1.36;100.00;102219.28;4992743;28;20591;-80
2023/02/15 00:48:54;;;;;;;15.87;10.63;;;;;;;1.38;100.00;102201.78;4988780;28;20204;-79
2023/02/15 00:51:21;;;;;;;19.10;11.77;;;;;;;1.43;100.00;102203.53;4993189;28;20214;-78
2023/02/15 00:53:48;;;;;;;16.10;10.90;;;;;;;1.45;100.00;102207.00;4990568;28;20224;-79
2023/02/15 00:56:14;;;;;;;16.77;10.97;;;;;;;1.47;100.00;102194.75;4994316;28;20215;-79
2023/02/15 00:58:44;;;;;;;16.50;10.73;;;;;;;1.48;100.00;102194.75;4986475;28;20686;-79
2023/02/15 01:01:12;;;;;;;16.20;9.90;;;;;;;1.53;100.00;102194.75;4994168;28;20541;-79
2023/02/15 01:03:41;;;;;;;15.47;10.07;;;;;;;1.54;100.00;102196.50;4991843;28;20234;-81
2023/02/15 01:06:08;;;;;;;15.43;10.70;;;;;;;1.56;100.00;102184.25;4991462;28;20295;-81
2023/02/15 01:08:35;;;;;;;14.37;9.60;;;;;;;1.60;100.00;102181.63;4988254;28;20664;-80
2023/02/15 01:11:04;;;;;;;19.03;10.17;;;;;;;1.67;100.00;102177.22;4989458;28;20208;-80
2023/02/15 01:13:31;;;;;;;15.13;10.20;;;;;;;1.71;100.00;102185.09;4987886;28;20226;-81
2023/02/15 01:15:59;;;;;;;13.97;9.87;;;;;;;1.72;100.00;102183.34;4980499;28;20219;-80
2023/02/15 01:18:26;;;;;;;15.43;10.00;;;;;;;1.73;100.00;102182.47;4991664;28;20236;-79
2023/02/15 01:20:53;;;;;;;12.90;9.13;;;;;;;1.75;100.00;102185.97;4991783;28;20261;-80
2023/02/15 01:23:19;;;;;;;14.33;9.27;;;;;;;1.75;100.00;102180.69;4991589;28;22370;-80
2023/02/15 01:25:46;;;;;;;12.60;9.53;;;;;;;1.77;100.00;102188.59;4992013;28;20215;-80
2023/02/15 01:28:13;;;;;;;14.13;9.43;;;;;;;1.74;100.00;102189.47;4988962;28;20695;-80
2023/02/15 01:30:39;;;;;;;12.90;9.10;;;;;;;1.71;100.00;102184.22;4984188;28;20215;-80
2023/02/15 01:33:07;;;;;;;13.20;10.03;;;;;;;1.66;100.00;102183.34;4996450;28;20235;-79
2023/02/15 01:35:37;;;;;;;13.50;9.70;;;;;;;1.63;100.00;102191.22;4990496;28;20210;-79
2023/02/15 01:38:03;;;;;;;14.90;10.07;;;;;;;1.60;100.00;102178.13;4992720;28;20233;-78
2023/02/15 01:40:30;;;;;;;15.90;9.60;;;;;;;1.56;100.00;102179.88;4984971;28;20231;-79
2023/02/15 01:42:57;;;;;;;12.73;8.80;;;;;;;1.53;100.00;102182.50;4992652;28;20228;-78
2023/02/15 01:45:27;;;;;;;13.93;9.87;;;;;;;1.49;100.00;102178.13;4995002;28;20208;-81
2023/02/15 01:47:59;;;;;;;14.17;9.33;;;;;;;1.47;100.00;102179.00;4988526;28;20664;-81
2023/02/15 01:50:31;;;;;;;14.17;9.00;;;;;;;1.42;100.00;102178.16;4990496;28;20214;-79
2023/02/15 01:53:02;;;;;;;11.90;8.30;;;;;;;1.38;100.00;102180.78;4991047;28;20619;-83
2023/02/15 01:55:33;;;;;;;14.07;9.70;;;;;;;1.35;100.00;102169.41;4993925;28;20216;-81
2023/02/15 01:58:03;;;;;;;12.83;8.70;;;;;;;1.32;100.00;102169.41;4987306;28;20235;-82
2023/02/15 02:00:33;;;;;;;13.83;9.43;;;;;;;1.27;100.00;102161.53;4990923;28;20637;-81
2023/02/15 02:03:00;;;;;;;14.20;9.40;;;;;;;1.25;100.00;102172.91;4993487;28;20615;-82
2023/02/15 02:05:29;;;;;;;14.90;9.50;;;;;;;1.21;100.00;102161.53;4993935;28;20218;-82
2023/02/15 02:07:59;;;;;;;12.33;8.73;;;;;;;1.17;100.00;102157.16;4989692;28;20200;-79
2023/02/15 02:10:26;;;;;;;12.13;9.17;;;;;;;1.13;100.00;102160.66;4992692;28;20214;-81
2023/02/15 02:12:55;;;;;;;13.23;8.20;;;;;;;1.09;100.00;102161.53;4988247;28;20201;-82
2023/02/15 02:15:28;;;;;;;13.93;9.87;;;;;;;1.08;100.00;102151.03;4985070;28;20211;-80
2023/02/15 02:18:05;;;;;;;13.70;9.37;;;;;;;1.05;100.00;102151.94;4989128;28;20212;-81
2023/02/15 02:21:01;;;;;;;11.27;8.43;;;;;;;1.02;100.00;102151.94;4984050;28;20214;-79
2023/02/15 02:24:01;;;;;;;10.90;7.77;;;;;;;0.94;100.00;102144.06;4988983;28;20216;-81
2023/02/15 02:26:50;;;;;;;12.40;8.83;;;;;;;0.86;100.00;102150.19;4984852;28;20581;-81
2023/02/15 02:29:48;;;;;;;11.23;8.03;;;;;;;0.79;100.00;102137.94;4986979;28;20215;-79
2023/02/15 02:32:51;;;;;;;11.30;8.27;;;;;;;0.73;100.00;102140.53;4986790;28;20203;-80
2023/02/15 02:35:27;;;;;;;14.93;9.23;;;;;;;0.67;100.00;102134.44;4985384;28;20207;-81
2023/02/15 02:38:03;;;;;;;13.77;8.70;;;;;;;0.65;100.00;102124.81;4989288;28;20207;-80
2023/02/15 02:40:40;;;;;;;13.07;9.50;;;;;;;0.62;100.00;102120.44;4990697;28;20210;-80
2023/02/15 02:43:14;;;;;;;16.60;10.03;;;;;;;0.61;100.00;102118.69;4993676;28;20235;-80
2023/02/15 02:45:44;;;;;;;14.43;9.80;;;;;;;0.59;100.00;102123.06;4991391;28;20214;-80
2023/02/15 02:48:15;;;;;;;19.17;10.47;;;;;;;0.58;100.00;102115.19;4992203;28;20668;-82
2023/02/15 02:50:43;;;;;;;14.33;10.07;;;;;;;0.56;100.00;102109.06;4988246;28;20206;-81
2023/02/15 02:53:12;;;;;;;14.90;9.30;;;;;;;0.54;100.00;102101.19;4986748;28;20724;-80
2023/02/15 02:55:44;;;;;;;15.10;9.47;;;;;;;0.51;100.00;102111.69;4991519;28;20587;-82
2023/02/15 02:58:15;;;;;;;13.67;9.57;;;;;;;0.47;100.00;102103.81;4985863;28;20215;-81
2023/02/15 03:00:47;;;;;;;16.10;10.10;;;;;;;0.43;100.00;102102.94;4981572;28;20552;-82
2023/02/15 03:03:32;;;;;;;16.30;11.07;;;;;;;0.41;100.00;102093.31;4986144;28;20274;-80
2023/02/15 03:06:04;;;;;;;14.83;9.83;;;;;;;0.38;100.00;102095.94;4985932;28;20204;-80
2023/02/15 03:08:36;;;;;;;15.47;9.30;;;;;;;0.38;100.00;102101.16;4986886;28;20222;-80
2023/02/15 03:11:05;;;;;;;15.67;10.03;;;;;;;0.34;100.00;102095.94;4984717;28;20211;-79
2023/02/15 03:13:33;;;;;;;17.20;10.17;;;;;;;0.32;100.00;102095.06;4984698;28;20322;-80
2023/02/15 03:18:52;;;;;;;13.97;9.33;;;;;;;0.28;100.00;102077.59;4985533;28;20290;-80
2023/02/15 03:21:23;;;;;;;13.67;9.27;;;;;;;0.27;100.00;102080.19;4986562;28;20845;-79
2023/02/15 03:23:54;;;;;;;12.00;8.93;;;;;;;0.27;100.00;102080.19;4988982;28;20258;-81
2023/02/15 03:26:23;;;;;;;13.67;9.30;;;;;;;0.23;100.00;102075.81;4991648;28;20226;-80
2023/02/15 03:28:54;;;;;;;14.70;9.27;;;;;;;0.20;100.00;102074.06;4990399;28;20199;-79
2023/02/15 03:31:24;;;;;;;11.97;7.77;;;;;;;0.18;100.00;102072.34;4989716;28;20230;-81
2023/02/15 03:33:56;;;;;;;13.30;9.53;;;;;;;0.16;100.00;102080.19;4985422;28;20236;-80
2023/02/15 03:36:30;;;;;;;16.47;10.17;;;;;;;0.17;100.00;102086.31;4992462;28;20211;-81
2023/02/15 03:39:03;;;;;;;14.67;10.27;;;;;;;0.16;100.00;102081.94;4987035;28;20212;-81
2023/02/15 03:41:35;;;;;;;12.63;9.20;;;;;;;0.15;100.00;102073.22;4990691;28;20204;-80
2023/02/15 03:44:06;;;;;;;14.77;9.47;;;;;;;0.14;100.00;102070.59;4984946;28;20224;-81
2023/02/15 03:46:37;;;;;;;12.80;9.17;;;;;;;0.12;100.00;102067.09;4980558;28;20207;-80
2023/02/15 03:49:08;;;;;;;12.80;9.10;;;;;;;0.09;100.00;102065.31;4990630;28;20676;-80
2023/02/15 03:51:40;;;;;;;14.47;8.40;;;;;;;0.07;100.00;102077.53;4986227;28;20202;-81
2023/02/15 03:54:09;;;;;;;13.27;8.53;;;;;;;0.06;100.00;102069.69;4987916;28;20232;-79
2023/02/15 03:56:38;;;;;;;12.37;8.40;;;;;;;0.03;100.00;102077.53;4989094;28;20293;-79
2023/02/15 04:02:00;;;;;;;11.37;7.57;;;;;;;-0.02;100.00;102074.91;4990086;28;20358;-80
2023/02/15 04:04:34;;;;;;;13.40;7.93;;;;;;;-0.04;100.00;102074.91;4987248;28;20226;-80
2023/02/15 04:07:04;;;;;;;11.00;7.27;;;;;;;-0.05;100.00;102074.91;4991313;28;20207;-79
2023/02/15 04:12:21;;;;;;;11.43;7.83;;;;;;;-0.07;100.00;102082.75;4987854;28;20211;-81
2023/02/15 04:17:31;;;;;;;14.27;9.07;;;;;;;-0.08;100.00;102069.66;4989439;28;20206;-80
2023/02/15 04:25:27;;;;;;;14.20;9.70;;;;;;;-0.15;100.00;102076.59;5000162;28;20206;-79
2023/02/15 04:27:55;;;;;;;12.80;8.77;;;;;;;-0.16;100.00;102072.22;4993289;28;20602;-80
2023/02/15 04:30:23;;;;;;;12.90;8.87;;;;;;;-0.16;100.00;102071.34;4987273;28;20211;-78
2023/02/15 04:32:49;;;;;;;13.67;8.53;;;;;;;-0.18;100.00;102063.50;4986921;28;20212;-80
2023/02/15 04:35:17;;;;;;;13.27;9.07;;;;;;;-0.19;100.00;102061.78;4984750;28;20211;-79
2023/02/15 04:37:45;;;;;;;13.47;8.77;;;;;;;-0.21;100.00;102047.78;4987872;28;20243;-78
2023/02/15 04:40:14;;;;;;;12.13;7.97;;;;;;;-0.21;100.00;102046.91;4988335;28;20589;-80
2023/02/15 04:42:40;;;;;;;11.13;7.87;;;;;;;-0.24;100.00;102057.38;4993009;28;20211;-80
2023/02/15 04:45:07;;;;;;;13.60;8.93;;;;;;;-0.28;100.00;102045.13;4996576;28;20580;-80
2023/02/15 04:47:34;;;;;;;12.40;8.63;;;;;;;-0.32;100.00;102049.47;4989903;28;20240;-79
2023/02/15 04:50:01;;;;;;;14.00;8.67;;;;;;;-0.35;100.00;102044.22;4986282;28;20223;-80
2023/02/15 04:52:27;;;;;;;12.37;8.67;;;;;;;-0.39;100.00;102039.88;4991687;28;20207;-79
2023/02/15 04:54:55;;;;;;;15.00;9.00;;;;;;;-0.41;100.00;102041.63;4980075;28;20228;-80
2023/02/15 04:57:21;;;;;;;14.10;8.77;;;;;;;-0.42;100.00;102047.72;4983881;28;20204;-80
2023/02/15 04:59:48;;;;;;;13.57;8.20;;;;;;;-0.44;100.00;102038.97;4983822;28;20619;-79
2023/02/15 05:02:14;;;;;;;14.73;9.27;;;;;;;-0.46;100.00;102035.47;4989160;28;20638;-79
2023/02/15 05:04:41;;;;;;;13.53;9.13;;;;;;;-0.46;100.00;102038.09;4985072;28;20247;-80
2023/02/15 05:07:07;;;;;;;16.03;9.80;;;;;;;-0.47;100.00;102049.44;4983885;28;20203;-81
2023/02/15 05:09:34;;;;;;;15.63;9.37;;;;;;;-0.48;100.00;102039.81;4985258;28;20200;-80
2023/02/15 05:12:01;;;;;;;17.63;9.83;;;;;;;-0.50;100.00;102039.81;4987046;28;20226;-79
2023/02/15 05:14:28;;;;;;;12.83;9.33;;;;;;;-0.51;100.00;102038.06;4982074;28;20238;-79
2023/02/15 05:16:54;;;;;;;13.80;9.17;;;;;;;-0.54;100.00;102034.59;4984119;28;20203;-79
2023/02/15 05:19:23;;;;;;;14.40;9.03;;;;;;;-0.58;100.00;102025.84;4990710;28;20234;-80
2023/02/15 05:21:49;;;;;;;14.10;9.03;;;;;;;-0.63;100.00;102026.69;4987059;28;20271;-81
2023/02/15 05:29:45;;;;;;;11.03;8.17;;;;;;;-0.70;100.00;102020.53;4982964;28;20617;-81
2023/02/15 05:32:13;;;;;;;13.03;8.17;;;;;;;-0.72;100.00;102019.69;4982398;28;20581;-82
2023/02/15 05:34:40;;;;;;;12.43;8.57;;;;;;;-0.75;100.00;102020.53;4983958;28;20228;-79
2023/02/15 05:37:07;;;;;;;14.97;9.67;;;;;;;-0.76;100.00;102026.63;4982756;28;20204;-80
2023/02/15 05:39:33;;;;;;;16.50;9.50;;;;;;;-0.77;100.00;102019.66;4985814;28;20641;-81
2023/02/15 05:42:01;;;;;;;16.27;9.87;;;;;;;-0.77;100.00;102024.00;4982786;28;20219;-81
2023/02/15 05:44:28;;;;;;;16.00;8.70;;;;;;;-0.79;100.00;102024.00;4998536;28;20749;-81
2023/02/15 05:46:54;;;;;;;18.07;10.57;;;;;;;-0.80;100.00;102027.47;4990857;28;20200;-82
2023/02/15 05:49:21;;;;;;;14.03;9.93;;;;;;;-0.78;100.00;102024.88;4987172;28;20212;-82
2023/02/15 05:51:47;;;;;;;15.77;9.47;;;;;;;-0.79;100.00;102030.97;4989357;28;20218;-82
2023/02/15 05:54:14;;;;;;;15.47;9.60;;;;;;;-0.79;100.00;102036.19;4995310;28;20227;-82
2023/02/15 05:56:40;;;;;;;18.10;10.00;;;;;;;-0.81;100.00;102033.56;4992709;28;20207;-80
2023/02/15 05:59:08;;;;;;;16.43;10.63;;;;;;;-0.81;100.00;102033.56;4990968;28;20238;-80
2023/02/15 06:01:34;;;;;;;17.80;10.60;;;;;;;-0.81;100.00;102030.09;4983813;28;20222;-82
2023/02/15 06:04:01;;;;;;;17.73;11.17;;;;;;;-0.81;100.00;102030.09;4981954;28;20600;-81
2023/02/15 06:06:27;;;;;;;20.47;12.40;;;;;;;-0.83;100.00;102030.06;4988227;28;20223;-82
2023/02/15 06:08:54;;;;;;;15.43;10.07;;;;;;;-0.83;100.00;102030.06;4986545;28;20207;-81
2023/02/15 06:11:20;;;;;;;18.63;11.47;;;;;;;-0.86;100.00;102024.81;4983456;28;20216;-82
2023/02/15 06:13:49;;;;;;;17.53;11.13;;;;;;;-0.89;100.00;102019.56;4986876;28;20223;-81
2023/02/15 06:16:17;;;;;;;17.43;10.93;;;;;;;-0.91;100.00;102016.09;4982461;28;20617;-80
2023/02/15 06:18:43;;;;;;;17.33;10.97;;;;;;;-0.92;100.00;102016.97;4982396;28;20728;-81
2023/02/15 06:21:10;;;;;;;15.57;10.73;;;;;;;-0.93;100.00;102017.81;4988178;28;20207;-81
2023/02/15 06:23:36;;;;;;;19.50;11.20;;;;;;;-0.93;100.00;102022.19;4987949;28;20239;-80
2023/02/15 06:26:03;;;;;;;17.00;10.10;;;;;;;-0.94;100.00;102010.84;4988030;28;20211;-79
2023/02/15 06:28:29;;;;;;;19.37;11.70;;;;;;;-0.95;100.00;102013.44;4982077;28;20211;-82
2023/02/15 06:30:56;;;;;;;18.67;11.80;;;;;;;-0.97;100.00;102010.81;4986264;28;20606;-82
2023/02/15 06:33:25;;;;;;;18.10;11.13;;;;;;;-0.97;100.00;102021.28;4986140;28;20603;-81
2023/02/15 06:35:51;;;;;;;19.37;11.53;;;;;;;-0.97;100.00;102020.41;4986473;28;20200;-82
2023/02/15 06:38:18;;;;;;;23.73;12.80;;;;;;;-0.95;100.00;102019.56;4986811;28;20592;-81
2023/02/15 06:40:44;;;;;;;24.83;14.50;;;;;;;-0.93;100.00;102019.56;4986309;28;20255;-82
2023/02/15 06:43:10;;;;;;;20.10;13.13;;;;;;;-0.91;100.00;102016.09;4988110;28;20227;-81
2023/02/15 06:45:37;;;;;;;21.17;12.87;;;;;;;-0.91;100.00;102018.72;4989301;28;20207;-81
2023/02/15 06:48:06;;;;;;;22.57;13.83;;;;;;;-0.90;100.00;102028.31;4984228;28;20565;-83
2023/02/15 06:50:34;;;;;;;23.00;13.73;;;;;;;-0.88;100.00;102017.81;4983866;28;20210;-82
2023/02/15 06:53:01;;;;;;;21.70;13.63;;;;;;;-0.85;100.00;102013.50;4988364;28;20227;-83
2023/02/15 06:55:27;;;;;;;26.87;15.33;;;;;;;-0.84;100.00;102012.63;4986832;28;20214;-82
2023/02/15 06:57:54;;;;;;;25.27;14.80;;;;;;;-0.82;100.00;102005.66;4982746;28;20242;-82
2023/02/15 07:00:22;;;;;;;23.60;13.40;;;;;;;-0.80;100.00;102003.06;4983199;28;20223;-82
2023/02/15 07:02:54;;;;;;;21.23;13.70;;;;;;;-0.78;100.00;102004.81;4984984;28;20220;-82
2023/02/15 07:05:21;;;;;;;21.37;13.10;;;;;;;-0.77;100.00;102003.97;4984620;28;20207;-82
2023/02/15 07:07:49;;;;;;;22.97;13.03;;;;;;;-0.76;100.00;102000.47;4980884;28;20215;-82
2023/02/15 07:10:16;;;;;;;24.03;13.00;;;;;;;-0.76;100.00;101995.25;4991132;28;20203;-82
2023/02/15 07:12:42;;;;;;;20.30;12.97;;;;;;;-0.75;100.00;101996.13;4982975;28;20207;-82
2023/02/15 07:15:09;;;;;;;21.60;13.43;;;;;;;-0.77;100.00;101993.50;4989664;28;20219;-81
2023/02/15 07:17:36;;;;;;;20.03;13.07;;;;;;;-0.76;100.00;101994.38;4990394;28;20254;-82
2023/02/15 07:20:04;;;;;;;20.67;12.97;;;;;;;-0.77;100.00;102003.97;4985470;28;20238;-82
2023/02/15 07:22:30;;;;;;;19.17;12.60;;;;;;;-0.77;100.00;102003.97;4988261;28;20219;-82
2023/02/15 07:24:58;;;;;;;21.23;13.43;;;;;;;-0.76;100.00;101994.38;4986026;28;20318;-83
2023/02/15 07:27:24;;;;;;;21.37;13.37;;;;;;;-0.74;100.00;101997.88;4988801;28;20691;-83
2023/02/15 07:29:51;;;;;;;21.57;14.37;;;;;;;-0.74;100.00;101993.50;4990783;28;20567;-82
2023/02/15 07:32:17;;;;;;;26.77;14.03;;;;;;;-0.72;100.00;101988.28;4990847;28;20574;-83
2023/02/15 07:34:44;;;;;;;22.93;13.57;;;;;;;-0.70;100.00;101990.03;4988859;28;20712;-82
2023/02/15 07:37:10;;;;;;;21.57;12.80;;;;;;;-0.66;100.00;101995.28;4998581;28;20203;-82
2023/02/15 07:39:37;;;;;;;23.93;13.83;;;;;;;-0.63;100.00;101995.28;4987514;28;20583;-82
2023/02/15 07:42:05;;;;;;;24.20;14.03;;;;;;;-0.60;100.00;102009.25;4989516;28;20204;-82
2023/02/15 07:44:31;;;;;;;21.40;12.97;;;;;;;-0.55;100.00;102009.28;4980902;28;20224;-83
2023/02/15 07:46:58;;;;;;;24.23;13.73;;;;;;;-0.52;100.00;102014.50;4983220;28;20217;-82
2023/02/15 07:49:24;;;;;;;21.93;13.43;;;;;;;-0.48;100.00;102014.53;4983554;28;20196;-81
2023/02/15 07:51:51;;;;;;;24.47;13.07;;;;;;;-0.43;100.00;102014.56;4983418;28;20251;-81
2023/02/15 07:54:17;;;;;;;21.53;12.20;;;;;;;-0.40;100.00;102017.19;4982226;28;20234;-82
2023/02/15 07:56:44;;;;;;;22.37;13.77;;;;;;;-0.37;100.00;102015.47;4982591;28;21504;-82
2023/02/15 07:59:12;;;;;;;21.73;12.80;;;;;;;-0.33;100.00;102008.47;4984768;28;20228;-81
2023/02/15 08:01:39;;;;;;;21.67;12.90;;;;;;;-0.27;100.00;102013.72;4984938;28;20207;-82
2023/02/15 08:04:09;;;;;;;20.50;12.73;;;;;;;-0.22;100.00;102019.00;4983947;28;20311;-81
2023/02/15 08:06:36;;;;;;;18.83;12.63;;;;;;;-0.17;100.00;102028.59;4983013;28;20657;-80
2023/02/15 08:09:05;;;;;;;22.53;12.90;;;;;;;-0.14;100.00;102023.34;4983807;28;20554;-82
2023/02/15 08:11:39;;;;;;;23.30;13.57;;;;;;;-0.06;100.00;102026.00;4988877;28;20211;-82
2023/02/15 08:14:08;;;;;;;21.17;12.93;;;;;;;0.03;100.00;102020.78;4986929;28;20223;-83
2023/02/15 08:16:38;;;;;;;22.37;12.53;;;;;;;0.12;100.00;102020.81;4990080;28;20208;-83
2023/02/15 08:19:08;;;;;;;21.43;12.00;;;;;;;0.21;100.00;102014.69;4989900;28;20234;-82
2023/02/15 08:21:36;;;;;;;20.20;11.77;;;;;;;0.31;100.00;102005.97;4988405;28;20578;-83
2023/02/15 08:24:04;;;;;;;18.57;11.77;;;;;;;0.41;100.00;101988.50;4986411;28;20227;-84
2023/02/15 08:26:32;;;;;;;22.47;13.03;;;;;;;0.51;100.00;101991.13;4979933;28;20203;-83
2023/02/15 08:29:02;;;;;;;21.50;12.77;;;;;;;0.60;100.00;101988.47;4986999;28;20708;-84
2023/02/15 08:31:29;;;;;;;19.97;12.47;;;;;;;0.70;100.00;101984.13;4991373;28;20294;-82
2023/02/15 08:33:57;;;;;;;17.90;11.23;;;;;;;0.84;100.00;101982.34;4990696;28;20223;-83
2023/02/15 08:36:26;;;;;;;17.90;11.40;;;;;;;0.95;100.00;101977.91;4989282;28;20215;-84
2023/02/15 08:38:53;;;;;;;17.63;11.80;;;;;;;1.06;100.00;101969.16;4987912;28;20203;-83
2023/02/15 08:41:21;;;;;;;16.97;11.60;;;;;;;1.14;100.00;101965.63;4982371;28;20210;-83
2023/02/15 08:43:50;;;;;;;18.73;11.27;;;;;;;1.24;100.00;101961.22;4991005;28;20724;-83
2023/02/15 08:46:19;;;;;;;15.07;11.10;;;;;;;1.34;100.00;101955.91;4991242;28;20283;-82
2023/02/15 08:48:47;;;;;;;15.90;10.90;;;;;;;1.48;100.00;101954.97;4989859;28;20212;-82
2023/02/15 08:51:16;;;;;;;15.37;10.80;;;;;;;1.58;100.00;101944.44;4993355;28;20587;-81
2023/02/15 08:53:45;;;;;;;14.07;10.47;;;;;;;1.76;100.00;101947.81;4987846;28;20687;-82
2023/02/15 08:56:12;;;;;;;13.03;9.57;;;;;;;1.91;100.00;101948.59;4983369;28;20230;-83
2023/02/15 08:58:39;;;;;;;13.37;9.30;;;;;;;2.09;100.00;101944.94;4987198;28;20296;-82
2023/02/15 09:01:11;;;;;;;13.27;9.50;;;;;;;2.28;100.00;101941.28;4987447;28;20232;-83
2023/02/15 09:03:38;;;;;;;13.70;9.13;;;;;;;2.46;100.00;101947.25;5000317;28;20226;-83
2023/02/15 09:06:05;;;;;;;13.10;8.47;;;;;;;2.63;100.00;101942.72;4991266;28;20204;-82
2023/02/15 09:08:33;;;;;;;14.23;9.37;;;;;;;2.79;100.00;101945.16;4980904;28;20208;-82
2023/02/15 09:11:09;;;;;;;12.40;9.00;;;;;;;2.95;100.00;101939.72;4989022;28;20235;-82
2023/02/15 09:13:36;;;;;;;13.73;10.00;;;;;;;3.09;100.00;101941.31;4988421;28;20238;-82
2023/02/15 09:16:03;;;;;;;14.43;9.80;;;;;;;3.20;100.00;101940.31;4986326;28;20212;-82
2023/02/15 09:18:33;;;;;;;12.77;8.93;;;;;;;3.29;100.00;101956.84;4995373;28;20207;-82
2023/02/15 09:21:04;;;;;;;13.27;9.33;;;;;;;3.40;100.00;101951.47;4986742;28;20314;-82
2023/02/15 09:23:32;;;;;;;11.57;9.00;;;;;;;3.49;100.00;101946.06;4988332;28;20231;-82
2023/02/15 09:26:03;;;;;;;13.10;9.73;;;;;;;3.60;100.00;101944.13;4985412;28;20228;-82
2023/02/15 09:28:30;;;;;;;11.77;8.87;;;;;;;3.69;100.00;101949.28;4989327;28;20203;-82
2023/02/15 09:30:57;;;;;;;13.57;9.70;;;;;;;3.78;100.00;101950.91;4992093;28;20200;-81
2023/02/15 09:33:25;;;;;;;13.10;8.97;;;;;;;3.88;100.00;101947.25;4989404;28;20252;-82
2023/02/15 09:35:51;;;;;;;11.90;8.43;;;;;;;3.95;100.00;101941.00;4996473;28;20200;-83
2023/02/15 09:38:17;;;;;;;9.80;8.33;;;;;;;4.05;100.00;101937.34;5005174;28;20211;-82
2023/02/15 09:41:02;;;;;;;10.50;8.57;;;;;;;4.15;100.00;101941.53;4992631;28;20235;-82
2023/02/15 09:43:39;;;;;;;10.83;7.97;;;;;;;4.24;100.00;101937.91;4992019;28;20224;-82
2023/02/15 09:46:28;;;;;;;13.67;9.50;;;;;;;4.33;100.00;101936.84;4996922;28;20211;-82
2023/02/15 09:49:03;;;;;;;10.63;8.23;;;;;;;4.43;100.00;101952.53;4999943;28;20302;-82
2023/02/15 09:51:58;;;;;;;10.87;8.13;;;;;;;4.54;99.14;101945.28;4994706;28;20234;-82
2023/02/15 09:54:40;;;;;;;10.37;8.13;;;;;;;4.61;98.05;101940.78;4990936;28;20250;-82
2023/02/15 09:57:19;;;;;;;10.77;7.87;;;;;;;4.64;96.55;101929.28;4992237;28;20657;-82
2023/02/15 09:59:55;;;;;;;10.70;7.60;;;;;;;4.66;95.43;101932.78;4993806;28;20219;-81
2023/02/15 10:02:37;;;;;;;12.70;8.87;;;;;;;4.68;94.70;101923.03;4985447;28;20207;-81
2023/02/15 10:05:17;;;;;;;11.67;8.93;;;;;;;4.75;93.58;101922.03;4992498;28;20234;-82
2023/02/15 10:08:17;;;;;;;9.50;7.90;;;;;;;4.86;93.38;101926.19;4979177;28;20208;-82
2023/02/15 10:10:54;;;;;;;8.73;7.10;;;;;;;4.97;93.23;101925.13;4995270;28;20215;-82
2023/02/15 10:13:33;;;;;;;10.67;7.27;;;;;;;5.07;92.48;101916.09;4993272;28;20235;-82
2023/02/15 10:16:16;;;;;;;8.13;6.43;;;;;;;5.18;91.37;101914.13;4981820;28;20211;-82
2023/02/15 10:18:53;;;;;;;8.73;6.57;;;;;;;5.30;90.97;101915.63;4983945;28;20662;-82
2023/02/15 10:21:32;;;;;;;10.33;7.57;;;;;;;5.39;90.29;101911.00;4990069;28;20329;-81
2023/02/15 10:24:15;;;;;;;10.90;7.10;;;;;;;5.50;89.42;101919.59;4984411;28;20238;-82
2023/02/15 10:26:45;;;;;;;9.40;6.77;;;;;;;5.59;88.75;101922.00;4987269;28;20234;-82
2023/02/15 10:29:28;;;;;;;7.77;6.70;;;;;;;5.67;87.75;101920.97;4991543;28;20267;-81
2023/02/15 10:32:04;;;;;;;7.53;6.17;;;;;;;5.70;86.88;101921.78;4991133;28;20212;-82
2023/02/15 10:34:38;;;;;;;8.37;6.70;;;;;;;5.75;85.91;101926.94;4993381;28;20218;-81
2023/02/15 10:37:33;;;;;;;8.27;6.93;;;;;;;5.80;85.37;101925.94;4993842;28;20936;-82
2023/02/15 10:40:08;;;;;;;10.80;6.90;;;;;;;5.84;84.27;101918.81;4989381;28;20646;-81
2023/02/15 10:42:47;;;;;;;8.23;6.47;;;;;;;5.88;83.30;101915.19;4983032;28;20229;-81
2023/02/15 10:45:24;;;;;;;8.50;6.93;;;;;;;5.90;82.68;101908.13;4996497;28;20212;-81
2023/02/15 10:48:07;;;;;;;7.33;6.03;;;;;;;5.97;82.53;101908.84;4992599;28;20723;-82
2023/02/15 10:50:47;;;;;;;9.13;6.53;;;;;;;6.02;81.61;101907.84;4987902;28;20230;-81
2023/02/15 10:53:35;;;;;;;8.60;6.87;;;;;;;6.08;81.06;101904.19;4986482;28;20220;-81
2023/02/15 10:56:09;;;;;;;8.37;6.93;;;;;;;6.12;80.57;101900.53;4995225;28;20203;-82
2023/02/15 10:58:50;;;;;;;10.77;6.57;;;;;;;6.15;80.08;101901.31;4985121;28;20204;-81
2023/02/15 11:01:26;;;;;;;9.73;6.87;;;;;;;6.19;80.30;101905.63;4994846;28;20230;-81
2023/02/15 11:04:15;;;;;;;9.70;7.20;;;;;;;6.25;79.98;101916.06;4990443;28;20223;-81
2023/02/15 11:06:51;;;;;;;9.43;6.40;;;;;;;6.32;79.46;101905.31;4991786;28;20696;-80
2023/02/15 11:09:20;;;;;;;8.13;6.03;;;;;;;6.34;78.81;101906.16;4999080;28;20222;-80
2023/02/15 11:11:51;;;;;;;9.10;6.20;;;;;;;6.37;78.35;101898.13;4988409;28;20206;-80
2023/02/15 11:14:24;;;;;;;8.80;6.60;;;;;;;6.42;78.04;101896.25;4993116;28;20231;-81
2023/02/15 11:16:58;;;;;;;8.37;6.00;;;;;;;6.44;77.68;101905.00;4990618;28;20718;-81
2023/02/15 11:22:12;;;;;;;9.73;7.13;;;;;;;6.51;77.26;101909.22;4987998;28;20685;-81
2023/02/15 11:24:42;;;;;;;8.10;6.33;;;;;;;6.51;76.60;101898.63;4998978;28;20223;-81
2023/02/15 11:27:21;;;;;;;9.57;7.30;;;;;;;6.47;75.13;101894.31;4994540;28;20262;-81
2023/02/15 11:29:55;;;;;;;9.33;6.70;;;;;;;6.44;75.18;101890.00;4994967;28;20593;-81
2023/02/15 11:32:28;;;;;;;7.73;6.47;;;;;;;6.47;75.36;101886.38;4989633;28;20206;-81
2023/02/15 11:34:59;;;;;;;7.83;6.70;;;;;;;6.50;75.49;101886.31;4995540;28;20230;-80
2023/02/15 11:37:33;;;;;;;7.77;6.43;;;;;;;6.57;75.75;101882.59;4994892;28;20315;-80
2023/02/15 11:40:03;;;;;;;7.03;6.33;;;;;;;6.62;75.45;101878.06;4985610;28;20216;-80
2023/02/15 11:42:32;;;;;;;8.53;6.83;;;;;;;6.67;74.49;101876.13;4995647;28;20207;-79
2023/02/15 11:45:02;;;;;;;6.93;6.23;;;;;;;6.70;74.90;101877.81;4993953;28;20219;-79
2023/02/15 11:47:30;;;;;;;8.80;6.13;;;;;;;6.77;74.62;101877.63;4995698;28;20204;-79
2023/02/15 11:49:57;;;;;;;8.13;6.57;;;;;;;6.85;74.96;101875.63;4991082;28;20576;-79
2023/02/15 11:52:24;;;;;;;8.97;7.30;;;;;;;6.90;74.82;101871.06;4989768;28;20580;-78
2023/02/15 11:54:53;;;;;;;8.33;6.43;;;;;;;6.97;75.05;101861.16;4981557;28;20232;-80